sensor_id;sensor_type;location;lat;lon;timestamp;pressure;altitude;pressure_sealevel;temperature;humidity
19748;BME280;10032;51.386;12.516;2023-06-14T00:02:08;100201.72;;;14.15;97.15
19748;BME280;10032;51.386;12.516;2023-06-14T00:04:34;100204.44;;;14.15;97.56
19748;BME280;10032;51.386;12.516;2023-06-14T00:07:00;100208.53;;;14.08;98.91
19748;BME280;10032;51.386;12.516;2023-06-14T00:09:25;100202.53;;;14.01;98.96
19748;BME280;10032;51.386;12.516;2023-06-14T00:11:51;100202.78;;;13.99;98.97
19748;BME280;10032;51.386;12.516;2023-06-14T00:14:16;100209.88;;;14.00;100.00
19748;BME280;10032;51.386;12.516;2023-06-14T00:16:42;100200.91;;;14.05;99.60
19748;BME280;10032;51.386;12.516;2023-06-14T00:19:08;100203.06;;;14.03;100.00
19748;BME280;10032;51.386;12.516;2023-06-14T00:21:36;100209.59;;;13.97;100.00
19748;BME280;10032;51.386;12.516;2023-06-14T00:24:01;100207.69;;;13.92;100.00
19748;BME280;10032;51.386;12.516;2023-06-14T00:26:27;100208.78;;;13.91;100.00
19748;BME280;10032;51.386;12.516;2023-06-14T00:28:53;100203.88;;;13.93;100.00
19748;BME280;10032;51.386;12.516;2023-06-14T00:31:19;100203.34;;;13.91;100.00
19748;BME280;10032;51.386;12.516;2023-06-14T00:33:45;100207.94;;;13.81;100.00
19748;BME280;10032;51.386;12.516;2023-06-14T00:36:10;100205.75;;;13.78;100.00
19748;BME280;10032;51.386;12.516;2023-06-14T00:38:36;100204.94;;;13.77;100.00
19748;BME280;10032;51.386;12.516;2023-06-14T00:41:01;100200.56;;;13.71;100.00
19748;BME280;10032;51.386;12.516;2023-06-14T00:43:26;100195.38;;;13.65;100.00
19748;BME280;10032;51.386;12.516;2023-06-14T00:45:52;100201.06;;;13.58;100.00
19748;BME280;10032;51.386;12.516;2023-06-14T00:48:17;100202.13;;;13.52;100.00
19748;BME280;10032;51.386;12.516;2023-06-14T00:50:45;100208.13;;;13.49;100.00
19748;BME280;10032;51.386;12.516;2023-06-14T00:53:12;100212.47;;;13.45;100.00
19748;BME280;10032;51.386;12.516;2023-06-14T00:55:37;100210.00;;;13.44;100.00
19748;BME280;10032;51.386;12.516;2023-06-14T00:58:03;100208.38;;;13.43;100.00
19748;BME280;10032;51.386;12.516;2023-06-14T01:00:28;100212.47;;;13.45;100.00
19748;BME280;10032;51.386;12.516;2023-06-14T01:02:54;100210.53;;;13.36;100.00
19748;BME280;10032;51.386;12.516;2023-06-14T01:05:20;100197.44;;;13.33;100.00
19748;BME280;10032;51.386;12.516;2023-06-14T01:08:21;100204.75;;;13.27;100.00
19748;BME280;10032;51.386;12.516;2023-06-14T01:11:04;100210.75;;;13.29;100.00
19748;BME280;10032;51.386;12.516;2023-06-14T01:13:34;100204.22;;;13.30;100.00
19748;BME280;10032;51.386;12.516;2023-06-14T01:16:01;100214.03;;;13.31;100.00
19748;BME280;10032;51.386;12.516;2023-06-14T01:18:28;100217.00;;;13.25;100.00
19748;BME280;10032;51.386;12.516;2023-06-14T01:20:55;100219.97;;;13.18;100.00
19748;BME280;10032;51.386;12.516;2023-06-14T01:23:22;100213.44;;;13.19;100.00
19748;BME280;10032;51.386;12.516;2023-06-14T01:25:49;100215.91;;;13.21;100.00
19748;BME280;10032;51.386;12.516;2023-06-14T01:28:20;100216.97;;;13.20;100.00
19748;BME280;10032;51.386;12.516;2023-06-14T01:30:48;100208.00;;;13.19;100.00
19748;BME280;10032;51.386;12.516;2023-06-14T01:33:17;100206.38;;;13.18;100.00
19748;BME280;10032;51.386;12.516;2023-06-14T01:35:46;100215.63;;;13.17;100.00
19748;BME280;10032;51.386;12.516;2023-06-14T01:38:13;100215.63;;;13.17;100.00
19748;BME280;10032;51.386;12.516;2023-06-14T01:40:39;100215.03;;;13.15;100.00
19748;BME280;10032;51.386;12.516;2023-06-14T01:43:05;100210.13;;;13.07;100.00
19748;BME280;10032;51.386;12.516;2023-06-14T01:45:33;100207.91;;;13.04;100.00
19748;BME280;10032;51.386;12.516;2023-06-14T01:47:59;100212.81;;;13.02;100.00
19748;BME280;10032;51.386;12.516;2023-06-14T01:50:28;100210.06;;;12.97;100.00
19748;BME280;10032;51.386;12.516;2023-06-14T01:52:55;100211.84;;;12.87;100.00
19748;BME280;10032;51.386;12.516;2023-06-14T01:55:20;100208.59;;;12.85;100.00
19748;BME280;10032;51.386;12.516;2023-06-14T01:57:47;100208.31;;;12.81;100.00
19748;BME280;10032;51.386;12.516;2023-06-14T02:00:13;100199.88;;;12.83;100.00
19748;BME280;10032;51.386;12.516;2023-06-14T02:02:40;100207.47;;;12.81;100.00
19748;BME280;10032;51.386;12.516;2023-06-14T02:05:06;100209.06;;;12.77;100.00
19748;BME280;10032;51.386;12.516;2023-06-14T02:07:31;100207.97;;;12.73;100.00
19748;BME280;10032;51.386;12.516;2023-06-14T02:09:57;100207.38;;;12.66;100.00
19748;BME280;10032;51.386;12.516;2023-06-14T02:12:22;100216.59;;;12.65;100.00
19748;BME280;10032;51.386;12.516;2023-06-14T02:14:47;100210.91;;;12.66;100.00
19748;BME280;10032;51.386;12.516;2023-06-14T02:17:14;100218.78;;;12.63;100.00
19748;BME280;10032;51.386;12.516;2023-06-14T02:19:40;100215.81;;;12.64;100.00
19748;BME280;10032;51.386;12.516;2023-06-14T02:22:05;100218.78;;;12.63;100.00
19748;BME280;10032;51.386;12.516;2023-06-14T02:24:31;100219.50;;;12.53;100.00
19748;BME280;10032;51.386;12.516;2023-06-14T02:26:57;100212.41;;;12.47;100.00
19748;BME280;10032;51.386;12.516;2023-06-14T02:29:22;100213.44;;;12.41;100.00
19748;BME280;10032;51.386;12.516;2023-06-14T02:31:48;100224.31;;;12.41;100.00
19748;BME280;10032;51.386;12.516;2023-06-14T02:34:14;100214.53;;;12.40;100.00
19748;BME280;10032;51.386;12.516;2023-06-14T02:36:42;100233.50;;;12.35;100.00
19748;BME280;10032;51.386;12.516;2023-06-14T02:39:08;100220.69;;;12.31;100.00
19748;BME280;10032;51.386;12.516;2023-06-14T02:41:36;100233.19;;;12.32;100.00
19748;BME280;10032;51.386;12.516;2023-06-14T02:44:02;100232.94;;;12.33;100.00
19748;BME280;10032;51.386;12.516;2023-06-14T02:46:27;100231.31;;;12.37;100.00
19748;BME280;10032;51.386;12.516;2023-06-14T02:48:53;100232.66;;;12.35;100.00
19748;BME280;10032;51.386;12.516;2023-06-14T02:51:18;100238.94;;;12.35;100.00
19748;BME280;10032;51.386;12.516;2023-06-14T02:53:43;100232.13;;;12.33;100.00
19748;BME280;10032;51.386;12.516;2023-06-14T02:56:09;100237.25;;;12.29;100.00
19748;BME280;10032;51.386;12.516;2023-06-14T02:58:36;100229.09;;;12.29;100.00
19748;BME280;10032;51.386;12.516;2023-06-14T03:01:02;100230.16;;;12.23;100.00
19748;BME280;10032;51.386;12.516;2023-06-14T03:03:29;100233.38;;;12.20;100.00
19748;BME280;10032;51.386;12.516;2023-06-14T03:05:55;100237.72;;;12.21;100.00
19748;BME280;10032;51.386;12.516;2023-06-14T03:08:21;100239.03;;;12.19;100.00
19748;BME280;10032;51.386;12.516;2023-06-14T03:10:52;100232.22;;;12.11;100.00
19748;BME280;10032;51.386;12.516;2023-06-14T03:13:18;100237.91;;;12.10;100.00
19748;BME280;10032;51.386;12.516;2023-06-14T03:15:47;100236.50;;;12.07;100.00
19748;BME280;10032;51.386;12.516;2023-06-14T03:18:15;100239.72;;;12.04;100.00
19748;BME280;10032;51.386;12.516;2023-06-14T03:20:41;100244.59;;;12.02;100.00
19748;BME280;10032;51.386;12.516;2023-06-14T03:23:08;100245.69;;;12.01;100.00
19748;BME280;10032;51.386;12.516;2023-06-14T03:25:33;100238.59;;;12.00;100.00
19748;BME280;10032;51.386;12.516;2023-06-14T03:28:04;100239.69;;;11.99;100.00
19748;BME280;10032;51.386;12.516;2023-06-14T03:30:30;100236.22;;;12.04;100.00
19748;BME280;10032;51.386;12.516;2023-06-14T03:32:57;100248.47;;;12.06;100.00
19748;BME280;10032;51.386;12.516;2023-06-14T03:35:23;100248.50;;;12.11;100.00
19748;BME280;10032;51.386;12.516;2023-06-14T03:37:49;100258.34;;;12.17;100.00
19748;BME280;10032;51.386;12.516;2023-06-14T03:40:17;100264.56;;;12.18;100.00
19748;BME280;10032;51.386;12.516;2023-06-14T03:42:43;100264.88;;;12.21;100.00
19748;BME280;10032;51.386;12.516;2023-06-14T03:45:08;100252.41;;;12.25;100.00
19748;BME280;10032;51.386;12.516;2023-06-14T03:47:34;100261.16;;;12.27;100.00
19748;BME280;10032;51.386;12.516;2023-06-14T03:50:00;100255.13;;;12.25;100.00
19748;BME280;10032;51.386;12.516;2023-06-14T03:52:26;100264.16;;;12.31;100.00
19748;BME280;10032;51.386;12.516;2023-06-14T03:54:52;100263.34;;;12.30;100.00
19748;BME280;10032;51.386;12.516;2023-06-14T03:57:18;100269.91;;;12.34;100.00
19748;BME280;10032;51.386;12.516;2023-06-14T03:59:43;100261.25;;;12.42;100.00
19748;BME280;10032;51.386;12.516;2023-06-14T04:02:09;100272.22;;;12.52;100.00
19748;BME280;10032;51.386;12.516;2023-06-14T04:04:35;100271.13;;;12.53;100.00
19748;BME280;10032;51.386;12.516;2023-06-14T04:07:01;100269.00;;;12.55;100.00
19748;BME280;10032;51.386;12.516;2023-06-14T04:09:31;100273.09;;;12.58;100.00
19748;BME280;10032;51.386;12.516;2023-06-14T04:11:57;100279.72;;;12.67;100.00
19748;BME280;10032;51.386;12.516;2023-06-14T04:14:22;100280.50;;;12.67;100.00
19748;BME280;10032;51.386;12.516;2023-06-14T04:16:48;100280.75;;;12.66;100.00
19748;BME280;10032;51.386;12.516;2023-06-14T04:19:14;100284.84;;;12.68;100.00
19748;BME280;10032;51.386;12.516;2023-06-14T04:21:40;100279.47;;;12.73;100.00
19748;BME280;10032;51.386;12.516;2023-06-14T04:24:05;100280.59;;;12.77;100.00
19748;BME280;10032;51.386;12.516;2023-06-14T04:26:32;100284.22;;;12.93;100.00
19748;BME280;10032;51.386;12.516;2023-06-14T04:28:59;100282.50;;;13.13;100.00
19748;BME280;10032;51.386;12.516;2023-06-14T04:31:30;100283.13;;;13.25;100.00
19748;BME280;10032;51.386;12.516;2023-06-14T04:33:59;100282.84;;;13.27;100.00
19748;BME280;10032;51.386;12.516;2023-06-14T04:36:24;100280.41;;;13.30;100.00
19748;BME280;10032;51.386;12.516;2023-06-14T04:38:51;100283.16;;;13.35;100.00
19748;BME280;10032;51.386;12.516;2023-06-14T04:41:20;100288.91;;;13.39;100.00
19748;BME280;10032;51.386;12.516;2023-06-14T04:43:48;100274.53;;;13.53;100.00
19748;BME280;10032;51.386;12.516;2023-06-14T04:46:15;100285.00;;;13.76;100.00
19748;BME280;10032;51.386;12.516;2023-06-14T04:48:41;100281.25;;;13.97;100.00
19748;BME280;10032;51.386;12.516;2023-06-14T04:51:08;100268.72;;;14.11;100.00
19748;BME280;10032;51.386;12.516;2023-06-14T04:53:34;100269.34;;;14.23;100.00
19748;BME280;10032;51.386;12.516;2023-06-14T04:56:00;100275.34;;;14.30;100.00
19748;BME280;10032;51.386;12.516;2023-06-14T04:58:26;100277.53;;;14.43;100.00
19748;BME280;10032;51.386;12.516;2023-06-14T05:00:52;100283.00;;;14.48;100.00
19748;BME280;10032;51.386;12.516;2023-06-14T05:03:18;100283.56;;;14.60;100.00
19748;BME280;10032;51.386;12.516;2023-06-14T05:05:46;100287.94;;;14.76;100.00
19748;BME280;10032;51.386;12.516;2023-06-14T05:08:11;100278.63;;;15.02;100.00
19748;BME280;10032;51.386;12.516;2023-06-14T05:10:37;100285.38;;;15.30;100.00
19748;BME280;10032;51.386;12.516;2023-06-14T05:13:02;100276.88;;;15.51;100.00
19748;BME280;10032;51.386;12.516;2023-06-14T05:15:28;100276.84;;;15.66;100.00
19748;BME280;10032;51.386;12.516;2023-06-14T05:17:54;100284.44;;;15.69;100.00
19748;BME280;10032;51.386;12.516;2023-06-14T05:20:22;100286.78;;;16.01;100.00
19748;BME280;10032;51.386;12.516;2023-06-14T05:22:53;100287.47;;;16.21;100.00
19748;BME280;10032;51.386;12.516;2023-06-14T05:25:22;100286.38;;;16.17;100.00
19748;BME280;10032;51.386;12.516;2023-06-14T05:27:48;100286.69;;;16.59;100.00
19748;BME280;10032;51.386;12.516;2023-06-14T05:30:20;100296.66;;;16.79;100.00
19748;BME280;10032;51.386;12.516;2023-06-14T05:32:46;100297.50;;;16.74;100.00
19748;BME280;10032;51.386;12.516;2023-06-14T05:35:11;100289.50;;;16.83;100.00
19748;BME280;10032;51.386;12.516;2023-06-14T05:37:37;100300.34;;;16.93;100.00
19748;BME280;10032;51.386;12.516;2023-06-14T05:40:03;100289.75;;;16.86;100.00
19748;BME280;10032;51.386;12.516;2023-06-14T05:42:31;100292.53;;;17.10;100.00
19748;BME280;10032;51.386;12.516;2023-06-14T05:44:56;100298.34;;;17.32;100.00
19748;BME280;10032;51.386;12.516;2023-06-14T05:47:22;100295.00;;;17.40;100.00
19748;BME280;10032;51.386;12.516;2023-06-14T05:49:47;100305.50;;;17.56;100.00
19748;BME280;10032;51.386;12.516;2023-06-14T05:52:13;100303.66;;;17.70;100.00
19748;BME280;10032;51.386;12.516;2023-06-14T05:54:38;100313.00;;;17.69;100.00
19748;BME280;10032;51.386;12.516;2023-06-14T05:57:04;100318.38;;;17.79;100.00
19748;BME280;10032;51.386;12.516;2023-06-14T05:59:31;100316.13;;;18.05;100.00
19748;BME280;10032;51.386;12.516;2023-06-14T06:01:57;100311.69;;;18.27;100.00
19748;BME280;10032;51.386;12.516;2023-06-14T06:04:23;100315.94;;;18.57;100.00
19748;BME280;10032;51.386;12.516;2023-06-14T06:06:48;100318.78;;;18.52;100.00
19748;BME280;10032;51.386;12.516;2023-06-14T06:09:14;100320.75;;;18.83;100.00
19748;BME280;10032;51.386;12.516;2023-06-14T06:11:40;100320.81;;;18.97;100.00
19748;BME280;10032;51.386;12.516;2023-06-14T06:14:05;100320.53;;;19.12;100.00
19748;BME280;10032;51.386;12.516;2023-06-14T06:16:30;100317.59;;;19.40;100.00
19748;BME280;10032;51.386;12.516;2023-06-14T06:18:56;100312.19;;;19.35;99.59
19748;BME280;10032;51.386;12.516;2023-06-14T06:21:21;100320.47;;;19.76;98.66
19748;BME280;10032;51.386;12.516;2023-06-14T06:23:47;100323.19;;;19.62;95.46
19748;BME280;10032;51.386;12.516;2023-06-14T06:26:12;100320.06;;;19.82;95.00
19748;BME280;10032;51.386;12.516;2023-06-14T06:28:38;100329.28;;;20.00;93.57
19748;BME280;10032;51.386;12.516;2023-06-14T06:31:03;100328.19;;;20.01;90.16
19748;BME280;10032;51.386;12.516;2023-06-14T06:33:29;100326.69;;;20.08;90.41
19748;BME280;10032;51.386;12.516;2023-06-14T06:35:54;100328.81;;;19.84;89.23
19748;BME280;10032;51.386;12.516;2023-06-14T06:38:20;100334.69;;;20.05;88.30
19748;BME280;10032;51.386;12.516;2023-06-14T06:40:45;100331.75;;;20.15;89.97
19748;BME280;10032;51.386;12.516;2023-06-14T06:43:11;100334.34;;;20.47;88.38
19748;BME280;10032;51.386;12.516;2023-06-14T06:45:41;100339.69;;;20.65;87.29
19748;BME280;10032;51.386;12.516;2023-06-14T06:48:07;100339.34;;;20.80;83.74
19748;BME280;10032;51.386;12.516;2023-06-14T06:50:32;100340.75;;;20.56;84.25
19748;BME280;10032;51.386;12.516;2023-06-14T06:52:58;100338.31;;;20.76;84.46
19748;BME280;10032;51.386;12.516;2023-06-14T06:55:23;100345.53;;;20.99;83.19
19748;BME280;10032;51.386;12.516;2023-06-14T06:57:49;100337.63;;;21.37;83.80
19748;BME280;10032;51.386;12.516;2023-06-14T07:00:15;100337.78;;;21.32;80.71
19748;BME280;10032;51.386;12.516;2023-06-14T07:02:42;100338.16;;;21.69;82.31
19748;BME280;10032;51.386;12.516;2023-06-14T07:05:08;100340.81;;;21.83;78.16
19748;BME280;10032;51.386;12.516;2023-06-14T07:07:34;100344.94;;;22.02;79.96
19748;BME280;10032;51.386;12.516;2023-06-14T07:10:00;100350.72;;;22.31;79.30
19748;BME280;10032;51.386;12.516;2023-06-14T07:12:26;100355.44;;;21.83;75.20
19748;BME280;10032;51.386;12.516;2023-06-14T07:14:51;100357.59;;;21.64;75.37
19748;BME280;10032;51.386;12.516;2023-06-14T07:17:16;100359.69;;;21.59;74.55
19748;BME280;10032;51.386;12.516;2023-06-14T07:19:42;100353.47;;;21.53;75.21
19748;BME280;10032;51.386;12.516;2023-06-14T07:22:07;100351.69;;;21.79;74.06
19748;BME280;10032;51.386;12.516;2023-06-14T07:24:32;100349.41;;;22.20;74.26
19748;BME280;10032;51.386;12.516;2023-06-14T07:27:00;100354.47;;;22.35;72.58
19748;BME280;10032;51.386;12.516;2023-06-14T07:29:25;100353.16;;;22.33;72.52
19748;BME280;10032;51.386;12.516;2023-06-14T07:31:52;100362.50;;;22.71;72.78
19748;BME280;10032;51.386;12.516;2023-06-14T07:34:17;100356.16;;;22.79;67.88
19748;BME280;10032;51.386;12.516;2023-06-14T07:36:43;100355.50;;;22.73;67.69
19748;BME280;10032;51.386;12.516;2023-06-14T07:39:10;100359.72;;;22.79;68.45
19748;BME280;10032;51.386;12.516;2023-06-14T07:41:35;100366.56;;;22.90;66.74
19748;BME280;10032;51.386;12.516;2023-06-14T07:44:00;100370.78;;;22.96;67.55
19748;BME280;10032;51.386;12.516;2023-06-14T07:46:26;100368.16;;;22.49;62.80
19748;BME280;10032;51.386;12.516;2023-06-14T07:48:51;100368.44;;;22.30;65.23
19748;BME280;10032;51.386;12.516;2023-06-14T07:51:17;100360.03;;;22.52;64.88
19748;BME280;10032;51.386;12.516;2023-06-14T07:53:42;100358.09;;;22.61;64.17
19748;BME280;10032;51.386;12.516;2023-06-14T07:56:07;100363.44;;;22.66;63.88
19748;BME280;10032;51.386;12.516;2023-06-14T07:58:33;100357.59;;;22.76;62.11
19748;BME280;10032;51.386;12.516;2023-06-14T08:00:58;100355.00;;;22.54;60.68
19748;BME280;10032;51.386;12.516;2023-06-14T08:03:25;100354.19;;;22.54;61.31
19748;BME280;10032;51.386;12.516;2023-06-14T08:05:50;100357.94;;;22.66;60.21
19748;BME280;10032;51.386;12.516;2023-06-14T08:08:16;100355.00;;;22.80;60.72
19748;BME280;10032;51.386;12.516;2023-06-14T08:10:41;100360.88;;;22.95;60.00
19748;BME280;10032;51.386;12.516;2023-06-14T08:13:07;100359.88;;;22.91;58.84
19748;BME280;10032;51.386;12.516;2023-06-14T08:15:34;100358.75;;;22.67;57.81
19748;BME280;10032;51.386;12.516;2023-06-14T08:17:59;100358.59;;;22.72;57.78
19748;BME280;10032;51.386;12.516;2023-06-14T08:20:26;100364.44;;;23.04;57.99
19748;BME280;10032;51.386;12.516;2023-06-14T08:22:51;100362.63;;;23.17;56.96
19748;BME280;10032;51.386;12.516;2023-06-14T08:25:20;100363.31;;;23.22;57.16
19748;BME280;10032;51.386;12.516;2023-06-14T08:27:45;100359.63;;;23.64;57.42
19748;BME280;10032;51.386;12.516;2023-06-14T08:30:11;100359.59;;;23.73;57.04
19748;BME280;10032;51.386;12.516;2023-06-14T08:32:37;100360.38;;;23.82;55.30
19748;BME280;10032;51.386;12.516;2023-06-14T08:35:03;100362.84;;;23.75;54.79
19748;BME280;10032;51.386;12.516;2023-06-14T08:37:29;100360.44;;;23.65;54.20
19748;BME280;10032;51.386;12.516;2023-06-14T08:39:55;100360.34;;;23.44;52.39
19748;BME280;10032;51.386;12.516;2023-06-14T08:42:22;100358.25;;;23.41;52.54
19748;BME280;10032;51.386;12.516;2023-06-14T08:44:49;100364.03;;;23.57;52.49
19748;BME280;10032;51.386;12.516;2023-06-14T08:47:15;100360.88;;;23.75;52.34
19748;BME280;10032;51.386;12.516;2023-06-14T08:49:45;100356.47;;;23.83;52.34
19748;BME280;10032;51.386;12.516;2023-06-14T08:52:13;100347.97;;;23.96;52.55
19748;BME280;10032;51.386;12.516;2023-06-14T08:54:40;100351.50;;;24.05;51.66
19748;BME280;10032;51.386;12.516;2023-06-14T08:57:11;100343.16;;;24.14;50.94
19748;BME280;10032;51.386;12.516;2023-06-14T08:59:39;100357.66;;;24.11;49.84
19748;BME280;10032;51.386;12.516;2023-06-14T09:02:10;100355.28;;;24.30;49.13
19748;BME280;10032;51.386;12.516;2023-06-14T09:04:38;100360.31;;;24.36;49.43
19748;BME280;10032;51.386;12.516;2023-06-14T09:07:05;100354.56;;;24.41;49.53
19748;BME280;10032;51.386;12.516;2023-06-14T09:09:32;100350.34;;;24.06;48.93
19748;BME280;10032;51.386;12.516;2023-06-14T09:11:57;100361.44;;;24.06;48.91
19748;BME280;10032;51.386;12.516;2023-06-14T09:14:24;100359.41;;;24.44;49.36
19748;BME280;10032;51.386;12.516;2023-06-14T09:16:53;100361.22;;;24.69;48.47
19748;BME280;10032;51.386;12.516;2023-06-14T09:19:24;100358.84;;;25.00;48.70
19748;BME280;10032;51.386;12.516;2023-06-14T09:21:52;100363.03;;;25.27;48.33
19748;BME280;10032;51.386;12.516;2023-06-14T09:24:18;100367.34;;;25.36;48.05
19748;BME280;10032;51.386;12.516;2023-06-14T09:26:47;100364.91;;;25.14;47.60
19748;BME280;10032;51.386;12.516;2023-06-14T09:29:13;100365.47;;;25.08;47.16
19748;BME280;10032;51.386;12.516;2023-06-14T09:31:38;100363.84;;;25.07;45.29
19748;BME280;10032;51.386;12.516;2023-06-14T09:34:04;100366.63;;;24.86;45.78
19748;BME280;10032;51.386;12.516;2023-06-14T09:36:32;100373.50;;;25.01;45.81
19748;BME280;10032;51.386;12.516;2023-06-14T09:39:03;100369.75;;;25.05;45.55
19748;BME280;10032;51.386;12.516;2023-06-14T09:41:36;100382.91;;;24.67;44.84
19748;BME280;10032;51.386;12.516;2023-06-14T09:44:03;100373.03;;;24.58;45.16
19748;BME280;10032;51.386;12.516;2023-06-14T09:46:29;100379.63;;;24.45;44.85
19748;BME280;10032;51.386;12.516;2023-06-14T09:48:59;100370.34;;;24.20;44.77
19748;BME280;10032;51.386;12.516;2023-06-14T09:51:25;100362.81;;;24.21;45.54
19748;BME280;10032;51.386;12.516;2023-06-14T09:53:52;100371.38;;;24.36;45.09
19748;BME280;10032;51.386;12.516;2023-06-14T09:56:25;100367.31;;;24.34;45.43
19748;BME280;10032;51.386;12.516;2023-06-14T09:58:55;100362.38;;;24.68;46.07
19748;BME280;10032;51.386;12.516;2023-06-14T10:01:23;100375.09;;;24.69;45.17
19748;BME280;10032;51.386;12.516;2023-06-14T10:03:50;100370.03;;;24.42;45.52
19748;BME280;10032;51.386;12.516;2023-06-14T10:06:18;100373.56;;;24.22;46.04
19748;BME280;10032;51.386;12.516;2023-06-14T10:08:46;100369.25;;;24.33;45.66
19748;BME280;10032;51.386;12.516;2023-06-14T10:11:13;100365.91;;;24.19;46.33
19748;BME280;10032;51.386;12.516;2023-06-14T10:13:39;100378.47;;;24.17;46.55
19748;BME280;10032;51.386;12.516;2023-06-14T10:16:39;100368.03;;;24.22;46.64
19748;BME280;10032;51.386;12.516;2023-06-14T10:19:32;100364.94;;;24.24;46.65
19748;BME280;10032;51.386;12.516;2023-06-14T10:22:08;100374.38;;;24.52;46.15
19748;BME280;10032;51.386;12.516;2023-06-14T10:24:45;100372.31;;;24.40;46.33
19748;BME280;10032;51.386;12.516;2023-06-14T10:27:15;100374.16;;;24.28;45.88
19748;BME280;10032;51.386;12.516;2023-06-14T10:32:23;100374.09;;;24.45;46.18
19748;BME280;10032;51.386;12.516;2023-06-14T10:35:00;100363.19;;;24.89;45.83
19748;BME280;10032;51.386;12.516;2023-06-14T10:37:26;100377.84;;;24.90;45.94
19748;BME280;10032;51.386;12.516;2023-06-14T10:39:52;100374.41;;;24.93;46.18
19748;BME280;10032;51.386;12.516;2023-06-14T10:42:18;100369.66;;;24.93;46.17
19748;BME280;10032;51.386;12.516;2023-06-14T10:44:54;100372.72;;;25.00;45.65
19748;BME280;10032;51.386;12.516;2023-06-14T10:47:34;100360.72;;;25.08;45.33
19748;BME280;10032;51.386;12.516;2023-06-14T10:50:10;100355.88;;;25.38;45.37
19748;BME280;10032;51.386;12.516;2023-06-14T10:52:39;100351.94;;;25.83;45.42
19748;BME280;10032;51.386;12.516;2023-06-14T10:55:14;100352.59;;;26.13;44.83
19748;BME280;10032;51.386;12.516;2023-06-14T10:57:50;100355.66;;;26.35;44.85
19748;BME280;10032;51.386;12.516;2023-06-14T11:00:23;100345.78;;;26.74;44.88
19748;BME280;10032;51.386;12.516;2023-06-14T11:11:16;100336.22;;;27.26;44.17
19748;BME280;10032;51.386;12.516;2023-06-14T11:13:45;100349.06;;;27.31;43.88
19748;BME280;10032;51.386;12.516;2023-06-14T11:16:12;100343.06;;;27.29;43.05
19748;BME280;10032;51.386;12.516;2023-06-14T11:18:38;100348.09;;;27.11;42.06
19748;BME280;10032;51.386;12.516;2023-06-14T11:21:04;100333.31;;;26.95;42.26
19748;BME280;10032;51.386;12.516;2023-06-14T11:23:29;100335.06;;;26.48;41.77
19748;BME280;10032;51.386;12.516;2023-06-14T11:25:55;100326.56;;;26.69;42.55
19748;BME280;10032;51.386;12.516;2023-06-14T11:28:20;100325.88;;;27.27;42.89
19748;BME280;10032;51.386;12.516;2023-06-14T11:30:47;100323.41;;;27.37;42.17
19748;BME280;10032;51.386;12.516;2023-06-14T11:33:19;100323.72;;;27.63;41.59
19748;BME280;10032;51.386;12.516;2023-06-14T11:35:45;100322.06;;;27.62;42.37
19748;BME280;10032;51.386;12.516;2023-06-14T11:38:11;100317.53;;;27.85;41.86
19748;BME280;10032;51.386;12.516;2023-06-14T11:40:38;100316.16;;;27.48;41.70
19748;BME280;10032;51.386;12.516;2023-06-14T11:43:03;100315.13;;;26.86;41.24
19748;BME280;10032;51.386;12.516;2023-06-14T11:45:30;100318.78;;;26.74;42.12
19748;BME280;10032;51.386;12.516;2023-06-14T11:47:57;100325.88;;;26.99;42.05
19748;BME280;10032;51.386;12.516;2023-06-14T11:50:23;100308.50;;;27.45;42.38
19748;BME280;10032;51.386;12.516;2023-06-14T11:52:59;100304.69;;;27.96;40.91
19748;BME280;10032;51.386;12.516;2023-06-14T11:55:29;100303.94;;;27.68;41.09
19748;BME280;10032;51.386;12.516;2023-06-14T11:57:54;100305.13;;;27.83;41.67
19748;BME280;10032;51.386;12.516;2023-06-14T12:00:24;100302.44;;;27.86;41.46
19748;BME280;10032;51.386;12.516;2023-06-14T12:02:54;100305.41;;;28.43;41.53
19748;BME280;10032;51.386;12.516;2023-06-14T12:05:23;100298.78;;;28.17;40.80
19748;BME280;10032;51.386;12.516;2023-06-14T12:07:50;100298.81;;;27.70;41.07
19748;BME280;10032;51.386;12.516;2023-06-14T12:10:15;100299.53;;;27.98;41.18
19748;BME280;10032;51.386;12.516;2023-06-14T12:12:41;100303.03;;;27.64;41.18
19748;BME280;10032;51.386;12.516;2023-06-14T12:15:08;100308.06;;;27.43;41.38
19748;BME280;10032;51.386;12.516;2023-06-14T12:17:35;100304.13;;;27.17;41.27
19748;BME280;10032;51.386;12.516;2023-06-14T12:20:12;100309.72;;;26.77;41.79
19748;BME280;10032;51.386;12.516;2023-06-14T12:22:59;100304.84;;;26.86;42.76
19748;BME280;10032;51.386;12.516;2023-06-14T12:25:27;100301.34;;;27.17;42.00
19748;BME280;10032;51.386;12.516;2023-06-14T12:27:57;100308.78;;;26.85;42.23
19748;BME280;10032;51.386;12.516;2023-06-14T12:30:23;100302.50;;;27.43;42.71
19748;BME280;10032;51.386;12.516;2023-06-14T12:32:48;100322.66;;;27.13;41.50
19748;BME280;10032;51.386;12.516;2023-06-14T12:35:14;100310.44;;;26.74;41.72
19748;BME280;10032;51.386;12.516;2023-06-14T12:37:40;100321.28;;;26.28;42.30
19748;BME280;10032;51.386;12.516;2023-06-14T12:40:06;100308.94;;;26.01;42.69
19748;BME280;10032;51.386;12.516;2023-06-14T12:42:32;100302.66;;;26.28;42.73
19748;BME280;10032;51.386;12.516;2023-06-14T12:44:59;100305.63;;;26.59;42.81
19748;BME280;10032;51.386;12.516;2023-06-14T12:47:24;100300.06;;;26.59;42.91